sensor_id;sensor_type;location;lat;lon;timestamp;P1;durP1;ratioP1;P2;durP2;ratioP2
9056;SDS011;4563;54.756;9.400;2022-12-07T00:00:02;4.03;;;2.53;;
9056;SDS011;4563;54.756;9.400;2022-12-07T00:02:29;3.80;;;2.90;;
9056;SDS011;4563;54.756;9.400;2022-12-07T00:04:58;4.93;;;3.83;;
9056;SDS011;4563;54.756;9.400;2022-12-07T00:07:25;7.13;;;3.57;;
9056;SDS011;4563;54.756;9.400;2022-12-07T00:09:52;5.47;;;4.20;;
9056;SDS011;4563;54.756;9.400;2022-12-07T00:12:18;7.47;;;3.63;;
9056;SDS011;4563;54.756;9.400;2022-12-07T00:14:46;4.13;;;3.00;;
9056;SDS011;4563;54.756;9.400;2022-12-07T00:17:13;4.10;;;2.13;;
9056;SDS011;4563;54.756;9.400;2022-12-07T00:19:40;2.67;;;2.47;;
9056;SDS011;4563;54.756;9.400;2022-12-07T00:22:08;3.20;;;2.60;;
9056;SDS011;4563;54.756;9.400;2022-12-07T00:24:35;4.17;;;2.80;;
9056;SDS011;4563;54.756;9.400;2022-12-07T00:27:01;3.10;;;2.83;;
9056;SDS011;4563;54.756;9.400;2022-12-07T00:29:28;3.27;;;2.73;;
9056;SDS011;4563;54.756;9.400;2022-12-07T00:31:55;4.77;;;2.40;;
9056;SDS011;4563;54.756;9.400;2022-12-07T00:34:22;2.63;;;2.43;;
9056;SDS011;4563;54.756;9.400;2022-12-07T00:36:49;3.10;;;2.80;;
9056;SDS011;4563;54.756;9.400;2022-12-07T00:39:18;3.80;;;2.77;;
9056;SDS011;4563;54.756;9.400;2022-12-07T00:41:45;3.37;;;2.67;;
9056;SDS011;4563;54.756;9.400;2022-12-07T00:44:12;2.63;;;2.43;;
9056;SDS011;4563;54.756;9.400;2022-12-07T00:46:38;4.33;;;1.87;;
9056;SDS011;4563;54.756;9.400;2022-12-07T00:49:05;3.10;;;2.13;;
9056;SDS011;4563;54.756;9.400;2022-12-07T00:51:32;4.63;;;3.10;;
9056;SDS011;4563;54.756;9.400;2022-12-07T00:53:59;5.93;;;2.77;;
9056;SDS011;4563;54.756;9.400;2022-12-07T00:56:28;5.37;;;2.80;;
9056;SDS011;4563;54.756;9.400;2022-12-07T00:58:55;3.50;;;2.47;;
9056;SDS011;4563;54.756;9.400;2022-12-07T01:01:24;4.57;;;3.13;;
9056;SDS011;4563;54.756;9.400;2022-12-07T01:03:53;4.57;;;2.83;;
9056;SDS011;4563;54.756;9.400;2022-12-07T01:06:20;2.70;;;2.50;;
9056;SDS011;4563;54.756;9.400;2022-12-07T01:08:49;3.57;;;2.73;;
9056;SDS011;4563;54.756;9.400;2022-12-07T01:11:16;3.00;;;2.07;;
9056;SDS011;4563;54.756;9.400;2022-12-07T01:13:46;3.10;;;2.47;;
9056;SDS011;4563;54.756;9.400;2022-12-07T01:16:15;2.80;;;2.57;;
9056;SDS011;4563;54.756;9.400;2022-12-07T01:18:45;3.17;;;2.87;;
9056;SDS011;4563;54.756;9.400;2022-12-07T01:21:13;9.50;;;3.40;;
9056;SDS011;4563;54.756;9.400;2022-12-07T01:23:41;3.57;;;2.63;;
9056;SDS011;4563;54.756;9.400;2022-12-07T01:26:10;9.80;;;3.00;;
9056;SDS011;4563;54.756;9.400;2022-12-07T01:28:38;7.57;;;3.03;;
9056;SDS011;4563;54.756;9.400;2022-12-07T01:31:07;2.67;;;2.47;;
9056;SDS011;4563;54.756;9.400;2022-12-07T01:33:36;3.13;;;2.40;;
9056;SDS011;4563;54.756;9.400;2022-12-07T01:36:05;2.90;;;2.53;;
9056;SDS011;4563;54.756;9.400;2022-12-07T01:38:34;2.60;;;2.40;;
9056;SDS011;4563;54.756;9.400;2022-12-07T01:41:01;3.07;;;2.77;;
9056;SDS011;4563;54.756;9.400;2022-12-07T01:43:29;3.27;;;2.77;;
9056;SDS011;4563;54.756;9.400;2022-12-07T01:45:57;3.67;;;2.70;;
9056;SDS011;4563;54.756;9.400;2022-12-07T01:48:27;4.00;;;2.53;;
9056;SDS011;4563;54.756;9.400;2022-12-07T01:50:59;4.87;;;3.13;;
9056;SDS011;4563;54.756;9.400;2022-12-07T01:53:30;4.30;;;3.23;;
9056;SDS011;4563;54.756;9.400;2022-12-07T01:55:58;3.33;;;2.80;;
9056;SDS011;4563;54.756;9.400;2022-12-07T01:58:26;3.40;;;3.10;;
9056;SDS011;4563;54.756;9.400;2022-12-07T02:00:53;2.60;;;2.40;;
9056;SDS011;4563;54.756;9.400;2022-12-07T02:03:21;3.73;;;3.10;;
9056;SDS011;4563;54.756;9.400;2022-12-07T02:05:52;4.77;;;2.77;;
9056;SDS011;4563;54.756;9.400;2022-12-07T02:08:20;4.07;;;2.67;;
9056;SDS011;4563;54.756;9.400;2022-12-07T02:10:47;3.83;;;3.33;;
9056;SDS011;4563;54.756;9.400;2022-12-07T02:13:15;3.50;;;3.17;;
9056;SDS011;4563;54.756;9.400;2022-12-07T02:15:48;3.97;;;3.27;;
9056;SDS011;4563;54.756;9.400;2022-12-07T02:18:29;5.57;;;3.17;;
9056;SDS011;4563;54.756;9.400;2022-12-07T02:21:11;6.50;;;4.17;;
9056;SDS011;4563;54.756;9.400;2022-12-07T02:23:50;7.77;;;4.43;;
9056;SDS011;4563;54.756;9.400;2022-12-07T02:26:43;5.77;;;4.23;;
9056;SDS011;4563;54.756;9.400;2022-12-07T02:29:29;5.17;;;3.70;;
9056;SDS011;4563;54.756;9.400;2022-12-07T02:32:02;4.77;;;3.87;;
9056;SDS011;4563;54.756;9.400;2022-12-07T02:34:36;4.40;;;3.67;;
9056;SDS011;4563;54.756;9.400;2022-12-07T02:37:09;4.93;;;2.73;;
9056;SDS011;4563;54.756;9.400;2022-12-07T02:39:42;4.57;;;3.27;;
9056;SDS011;4563;54.756;9.400;2022-12-07T02:42:13;3.73;;;3.43;;
9056;SDS011;4563;54.756;9.400;2022-12-07T02:44:45;3.30;;;2.83;;
9056;SDS011;4563;54.756;9.400;2022-12-07T02:47:13;3.20;;;2.83;;
9056;SDS011;4563;54.756;9.400;2022-12-07T02:49:43;4.13;;;2.93;;
9056;SDS011;4563;54.756;9.400;2022-12-07T02:52:11;3.33;;;2.67;;
9056;SDS011;4563;54.756;9.400;2022-12-07T02:54:37;3.60;;;2.93;;
9056;SDS011;4563;54.756;9.400;2022-12-07T02:57:07;4.37;;;3.50;;
9056;SDS011;4563;54.756;9.400;2022-12-07T02:59:48;5.23;;;3.87;;
9056;SDS011;4563;54.756;9.400;2022-12-07T03:02:29;4.73;;;3.10;;
9056;SDS011;4563;54.756;9.400;2022-12-07T03:05:11;4.23;;;2.80;;
9056;SDS011;4563;54.756;9.400;2022-12-07T03:07:49;4.40;;;2.93;;
9056;SDS011;4563;54.756;9.400;2022-12-07T03:10:22;3.77;;;3.13;;
9056;SDS011;4563;54.756;9.400;2022-12-07T03:12:55;4.13;;;3.30;;
9056;SDS011;4563;54.756;9.400;2022-12-07T03:15:32;3.33;;;2.63;;
9056;SDS011;4563;54.756;9.400;2022-12-07T03:18:06;3.53;;;2.47;;
9056;SDS011;4563;54.756;9.400;2022-12-07T03:20:35;4.20;;;3.03;;
9056;SDS011;4563;54.756;9.400;2022-12-07T03:23:05;3.53;;;3.03;;
9056;SDS011;4563;54.756;9.400;2022-12-07T03:25:37;3.70;;;3.23;;
9056;SDS011;4563;54.756;9.400;2022-12-07T03:28:07;2.77;;;2.50;;
9056;SDS011;4563;54.756;9.400;2022-12-07T03:30:39;6.03;;;3.23;;
9056;SDS011;4563;54.756;9.400;2022-12-07T03:33:10;3.50;;;3.07;;
9056;SDS011;4563;54.756;9.400;2022-12-07T03:35:41;4.73;;;3.13;;
9056;SDS011;4563;54.756;9.400;2022-12-07T03:38:13;3.40;;;2.70;;
9056;SDS011;4563;54.756;9.400;2022-12-07T03:40:45;3.87;;;3.30;;
9056;SDS011;4563;54.756;9.400;2022-12-07T03:43:15;3.53;;;3.13;;
9056;SDS011;4563;54.756;9.400;2022-12-07T03:45:47;11.93;;;8.07;;
9056;SDS011;4563;54.756;9.400;2022-12-07T03:48:22;7.83;;;5.00;;
9056;SDS011;4563;54.756;9.400;2022-12-07T03:50:55;5.40;;;3.10;;
9056;SDS011;4563;54.756;9.400;2022-12-07T03:53:28;3.77;;;2.83;;
9056;SDS011;4563;54.756;9.400;2022-12-07T03:56:00;5.53;;;2.83;;
9056;SDS011;4563;54.756;9.400;2022-12-07T03:58:28;3.97;;;2.90;;
9056;SDS011;4563;54.756;9.400;2022-12-07T04:00:58;3.67;;;2.80;;
9056;SDS011;4563;54.756;9.400;2022-12-07T04:03:25;3.17;;;2.87;;
9056;SDS011;4563;54.756;9.400;2022-12-07T04:05:52;4.13;;;3.10;;
9056;SDS011;4563;54.756;9.400;2022-12-07T04:08:19;3.50;;;3.13;;
9056;SDS011;4563;54.756;9.400;2022-12-07T04:10:46;4.40;;;2.70;;
9056;SDS011;4563;54.756;9.400;2022-12-07T04:13:13;5.83;;;3.43;;
9056;SDS011;4563;54.756;9.400;2022-12-07T04:15:39;4.10;;;3.50;;
9056;SDS011;4563;54.756;9.400;2022-12-07T04:18:08;3.73;;;2.93;;
9056;SDS011;4563;54.756;9.400;2022-12-07T04:20:34;4.27;;;2.70;;
9056;SDS011;4563;54.756;9.400;2022-12-07T04:23:01;2.50;;;2.30;;
9056;SDS011;4563;54.756;9.400;2022-12-07T04:25:28;3.90;;;2.60;;
9056;SDS011;4563;54.756;9.400;2022-12-07T04:27:55;3.63;;;2.23;;
9056;SDS011;4563;54.756;9.400;2022-12-07T04:30:22;3.27;;;2.47;;
9056;SDS011;4563;54.756;9.400;2022-12-07T04:32:49;2.97;;;2.40;;
9056;SDS011;4563;54.756;9.400;2022-12-07T04:35:17;6.27;;;2.47;;
9056;SDS011;4563;54.756;9.400;2022-12-07T04:37:44;2.53;;;2.00;;
9056;SDS011;4563;54.756;9.400;2022-12-07T04:40:11;2.30;;;2.10;;
9056;SDS011;4563;54.756;9.400;2022-12-07T04:42:39;2.67;;;2.23;;
9056;SDS011;4563;54.756;9.400;2022-12-07T04:45:06;5.17;;;3.13;;
9056;SDS011;4563;54.756;9.400;2022-12-07T04:47:34;2.20;;;2.00;;
9056;SDS011;4563;54.756;9.400;2022-12-07T04:50:01;3.07;;;2.33;;
9056;SDS011;4563;54.756;9.400;2022-12-07T04:52:29;2.47;;;1.90;;
9056;SDS011;4563;54.756;9.400;2022-12-07T04:54:56;4.80;;;2.03;;
9056;SDS011;4563;54.756;9.400;2022-12-07T04:57:23;2.03;;;1.77;;
9056;SDS011;4563;54.756;9.400;2022-12-07T04:59:49;2.63;;;2.00;;
9056;SDS011;4563;54.756;9.400;2022-12-07T05:02:16;3.07;;;1.90;;
9056;SDS011;4563;54.756;9.400;2022-12-07T05:04:43;3.90;;;1.70;;
9056;SDS011;4563;54.756;9.400;2022-12-07T05:07:10;1.90;;;1.53;;
9056;SDS011;4563;54.756;9.400;2022-12-07T05:09:38;6.67;;;1.63;;
9056;SDS011;4563;54.756;9.400;2022-12-07T05:12:05;5.50;;;2.13;;
9056;SDS011;4563;54.756;9.400;2022-12-07T05:14:32;6.43;;;1.60;;
9056;SDS011;4563;54.756;9.400;2022-12-07T05:16:58;2.10;;;1.53;;
9056;SDS011;4563;54.756;9.400;2022-12-07T05:19:25;3.93;;;1.47;;
9056;SDS011;4563;54.756;9.400;2022-12-07T05:21:52;2.67;;;1.40;;
9056;SDS011;4563;54.756;9.400;2022-12-07T05:24:19;2.33;;;1.70;;
9056;SDS011;4563;54.756;9.400;2022-12-07T05:26:47;4.93;;;1.50;;
9056;SDS011;4563;54.756;9.400;2022-12-07T05:29:14;2.30;;;1.60;;
9056;SDS011;4563;54.756;9.400;2022-12-07T05:31:43;1.50;;;1.40;;
9056;SDS011;4563;54.756;9.400;2022-12-07T05:34:10;1.93;;;1.60;;
9056;SDS011;4563;54.756;9.400;2022-12-07T05:36:37;6.97;;;1.67;;
9056;SDS011;4563;54.756;9.400;2022-12-07T05:39:04;2.13;;;1.37;;
9056;SDS011;4563;54.756;9.400;2022-12-07T05:41:32;3.73;;;1.87;;
9056;SDS011;4563;54.756;9.400;2022-12-07T05:44:18;5.67;;;2.27;;
9056;SDS011;4563;54.756;9.400;2022-12-07T05:46:44;2.00;;;1.70;;
9056;SDS011;4563;54.756;9.400;2022-12-07T05:49:11;2.57;;;1.60;;
9056;SDS011;4563;54.756;9.400;2022-12-07T05:51:38;2.77;;;1.50;;
9056;SDS011;4563;54.756;9.400;2022-12-07T05:54:05;2.57;;;1.30;;
9056;SDS011;4563;54.756;9.400;2022-12-07T05:56:31;2.27;;;1.50;;
9056;SDS011;4563;54.756;9.400;2022-12-07T05:58:58;1.73;;;1.60;;
9056;SDS011;4563;54.756;9.400;2022-12-07T06:01:44;1.50;;;1.33;;
9056;SDS011;4563;54.756;9.400;2022-12-07T06:04:11;1.10;;;1.03;;
9056;SDS011;4563;54.756;9.400;2022-12-07T06:06:38;1.40;;;1.17;;
9056;SDS011;4563;54.756;9.400;2022-12-07T06:09:05;3.70;;;1.60;;
9056;SDS011;4563;54.756;9.400;2022-12-07T06:11:31;2.13;;;1.33;;
9056;SDS011;4563;54.756;9.400;2022-12-07T06:14:16;2.73;;;1.53;;
9056;SDS011;4563;54.756;9.400;2022-12-07T06:16:44;8.97;;;1.53;;
9056;SDS011;4563;54.756;9.400;2022-12-07T06:19:11;2.67;;;1.23;;
9056;SDS011;4563;54.756;9.400;2022-12-07T06:21:38;4.27;;;1.13;;
9056;SDS011;4563;54.756;9.400;2022-12-07T06:24:05;2.70;;;1.33;;
9056;SDS011;4563;54.756;9.400;2022-12-07T06:26:32;2.87;;;1.10;;
9056;SDS011;4563;54.756;9.400;2022-12-07T06:28:59;3.00;;;1.10;;
9056;SDS011;4563;54.756;9.400;2022-12-07T06:31:26;1.77;;;1.17;;
9056;SDS011;4563;54.756;9.400;2022-12-07T06:33:57;4.03;;;0.90;;
9056;SDS011;4563;54.756;9.400;2022-12-07T06:36:25;0.80;;;0.70;;
9056;SDS011;4563;54.756;9.400;2022-12-07T06:38:51;2.57;;;1.00;;
9056;SDS011;4563;54.756;9.400;2022-12-07T06:41:18;3.83;;;0.97;;
9056;SDS011;4563;54.756;9.400;2022-12-07T06:43:45;3.77;;;0.90;;
9056;SDS011;4563;54.756;9.400;2022-12-07T06:46:12;5.17;;;0.90;;
9056;SDS011;4563;54.756;9.400;2022-12-07T06:48:39;2.03;;;0.87;;
9056;SDS011;4563;54.756;9.400;2022-12-07T06:51:07;6.87;;;1.03;;
9056;SDS011;4563;54.756;9.400;2022-12-07T06:53:35;1.97;;;0.60;;
9056;SDS011;4563;54.756;9.400;2022-12-07T06:56:04;6.03;;;1.00;;
9056;SDS011;4563;54.756;9.400;2022-12-07T06:58:39;2.53;;;0.80;;
9056;SDS011;4563;54.756;9.400;2022-12-07T07:10:29;3.73;;;0.80;;
9056;SDS011;4563;54.756;9.400;2022-12-07T07:12:56;1.60;;;1.00;;
9056;SDS011;4563;54.756;9.400;2022-12-07T07:15:23;6.63;;;0.57;;
9056;SDS011;4563;54.756;9.400;2022-12-07T07:17:50;3.07;;;0.43;;
9056;SDS011;4563;54.756;9.400;2022-12-07T07:20:17;3.33;;;0.33;;
9056;SDS011;4563;54.756;9.400;2022-12-07T07:22:44;3.70;;;0.43;;
9056;SDS011;4563;54.756;9.400;2022-12-07T07:25:11;0.90;;;0.40;;
9056;SDS011;4563;54.756;9.400;2022-12-07T07:27:39;2.13;;;0.37;;
9056;SDS011;4563;54.756;9.400;2022-12-07T07:30:06;0.90;;;0.33;;
9056;SDS011;4563;54.756;9.400;2022-12-07T07:32:34;1.97;;;0.47;;
9056;SDS011;4563;54.756;9.400;2022-12-07T07:35:01;1.13;;;0.20;;
9056;SDS011;4563;54.756;9.400;2022-12-07T07:37:28;3.27;;;0.27;;
9056;SDS011;4563;54.756;9.400;2022-12-07T07:39:56;6.87;;;0.63;;
9056;SDS011;4563;54.756;9.400;2022-12-07T07:42:23;5.87;;;0.63;;
9056;SDS011;4563;54.756;9.400;2022-12-07T07:44:51;4.73;;;0.40;;
9056;SDS011;4563;54.756;9.400;2022-12-07T07:47:18;0.87;;;0.40;;
9056;SDS011;4563;54.756;9.400;2022-12-07T07:49:45;3.60;;;0.47;;
9056;SDS011;4563;54.756;9.400;2022-12-07T07:52:11;0.87;;;0.30;;
9056;SDS011;4563;54.756;9.400;2022-12-07T07:54:38;1.50;;;0.20;;
9056;SDS011;4563;54.756;9.400;2022-12-07T07:57:05;3.10;;;0.33;;
9056;SDS011;4563;54.756;9.400;2022-12-07T07:59:32;4.57;;;2.13;;
9056;SDS011;4563;54.756;9.400;2022-12-07T08:02:00;7.90;;;2.13;;
9056;SDS011;4563;54.756;9.400;2022-12-07T08:04:27;4.10;;;0.97;;
9056;SDS011;4563;54.756;9.400;2022-12-07T08:06:53;1.57;;;0.90;;
9056;SDS011;4563;54.756;9.400;2022-12-07T08:09:20;4.43;;;1.60;;
9056;SDS011;4563;54.756;9.400;2022-12-07T08:11:47;0.77;;;0.57;;
9056;SDS011;4563;54.756;9.400;2022-12-07T08:14:14;0.77;;;0.30;;
9056;SDS011;4563;54.756;9.400;2022-12-07T08:16:41;4.43;;;0.80;;
9056;SDS011;4563;54.756;9.400;2022-12-07T08:19:09;0.80;;;0.60;;
9056;SDS011;4563;54.756;9.400;2022-12-07T08:21:36;3.10;;;0.50;;
9056;SDS011;4563;54.756;9.400;2022-12-07T08:24:04;1.30;;;0.40;;
9056;SDS011;4563;54.756;9.400;2022-12-07T08:26:31;3.33;;;0.70;;
9056;SDS011;4563;54.756;9.400;2022-12-07T08:28:58;0.40;;;0.40;;
9056;SDS011;4563;54.756;9.400;2022-12-07T08:31:25;2.20;;;0.50;;
9056;SDS011;4563;54.756;9.400;2022-12-07T08:33:52;0.80;;;0.40;;
9056;SDS011;4563;54.756;9.400;2022-12-07T08:36:21;2.93;;;0.53;;
9056;SDS011;4563;54.756;9.400;2022-12-07T08:38:49;0.87;;;0.40;;
9056;SDS011;4563;54.756;9.400;2022-12-07T08:41:16;3.90;;;1.00;;
9056;SDS011;4563;54.756;9.400;2022-12-07T08:43:43;3.80;;;0.50;;
9056;SDS011;4563;54.756;9.400;2022-12-07T08:46:11;1.70;;;0.40;;
9056;SDS011;4563;54.756;9.400;2022-12-07T08:48:43;1.87;;;0.27;;
9056;SDS011;4563;54.756;9.400;2022-12-07T08:51:13;3.57;;;0.50;;
9056;SDS011;4563;54.756;9.400;2022-12-07T08:53:41;0.50;;;0.17;;
9056;SDS011;4563;54.756;9.400;2022-12-07T08:56:09;1.93;;;0.40;;
9056;SDS011;4563;54.756;9.400;2022-12-07T08:58:37;0.20;;;0.20;;
9056;SDS011;4563;54.756;9.400;2022-12-07T09:01:04;1.63;;;0.30;;
9056;SDS011;4563;54.756;9.400;2022-12-07T09:03:31;1.20;;;0.50;;
9056;SDS011;4563;54.756;9.400;2022-12-07T09:05:58;0.93;;;0.30;;
9056;SDS011;4563;54.756;9.400;2022-12-07T09:08:28;3.80;;;0.30;;
9056;SDS011;4563;54.756;9.400;2022-12-07T09:11:16;0.77;;;0.23;;
9056;SDS011;4563;54.756;9.400;2022-12-07T09:13:42;0.43;;;0.20;;
9056;SDS011;4563;54.756;9.400;2022-12-07T09:16:09;4.63;;;0.30;;
9056;SDS011;4563;54.756;9.400;2022-12-07T09:18:36;4.80;;;0.40;;
9056;SDS011;4563;54.756;9.400;2022-12-07T09:21:03;2.27;;;0.50;;
9056;SDS011;4563;54.756;9.400;2022-12-07T09:23:30;1.70;;;0.40;;
9056;SDS011;4563;54.756;9.400;2022-12-07T09:25:58;3.40;;;0.30;;
9056;SDS011;4563;54.756;9.400;2022-12-07T09:28:27;3.20;;;0.20;;
9056;SDS011;4563;54.756;9.400;2022-12-07T09:30:54;3.17;;;0.50;;
9056;SDS011;4563;54.756;9.400;2022-12-07T09:33:21;2.50;;;0.70;;
9056;SDS011;4563;54.756;9.400;2022-12-07T09:35:48;1.97;;;0.30;;
9056;SDS011;4563;54.756;9.400;2022-12-07T09:38:17;2.43;;;0.33;;
9056;SDS011;4563;54.756;9.400;2022-12-07T09:40:45;0.40;;;0.20;;
9056;SDS011;4563;54.756;9.400;2022-12-07T09:43:12;0.30;;;0.20;;
9056;SDS011;4563;54.756;9.400;2022-12-07T09:45:42;2.40;;;0.20;;
9056;SDS011;4563;54.756;9.400;2022-12-07T09:48:14;3.73;;;0.10;;
9056;SDS011;4563;54.756;9.400;2022-12-07T09:50:44;1.47;;;0.27;;
9056;SDS011;4563;54.756;9.400;2022-12-07T09:53:13;0.83;;;0.40;;
9056;SDS011;4563;54.756;9.400;2022-12-07T09:55:51;0.97;;;0.10;;
9056;SDS011;4563;54.756;9.400;2022-12-07T09:58:19;0.37;;;0.30;;
9056;SDS011;4563;54.756;9.400;2022-12-07T10:00:51;0.50;;;0.30;;
9056;SDS011;4563;54.756;9.400;2022-12-07T10:03:21;1.93;;;0.30;;
9056;SDS011;4563;54.756;9.400;2022-12-07T10:05:49;0.67;;;0.20;;
9056;SDS011;4563;54.756;9.400;2022-12-07T10:08:17;1.00;;;0.20;;
9056;SDS011;4563;54.756;9.400;2022-12-07T10:10:45;2.10;;;0.20;;
9056;SDS011;4563;54.756;9.400;2022-12-07T10:13:17;0.30;;;0.23;;
9056;SDS011;4563;54.756;9.400;2022-12-07T10:15:47;0.70;;;0.20;;
9056;SDS011;4563;54.756;9.400;2022-12-07T10:18:26;4.00;;;0.40;;
9056;SDS011;4563;54.756;9.400;2022-12-07T10:21:05;2.37;;;0.33;;
9056;SDS011;4563;54.756;9.400;2022-12-07T10:23:39;0.57;;;0.57;;
9056;SDS011;4563;54.756;9.400;2022-12-07T10:26:20;0.70;;;0.47;;
9056;SDS011;4563;54.756;9.400;2022-12-07T10:28:53;1.20;;;0.27;;
9056;SDS011;4563;54.756;9.400;2022-12-07T10:31:21;2.47;;;0.10;;
9056;SDS011;4563;54.756;9.400;2022-12-07T10:33:51;1.17;;;0.40;;
9056;SDS011;4563;54.756;9.400;2022-12-07T10:36:21;1.03;;;0.20;;
9056;SDS011;4563;54.756;9.400;2022-12-07T10:38:51;0.43;;;0.30;;
9056;SDS011;4563;54.756;9.400;2022-12-07T10:41:19;1.07;;;0.30;;
9056;SDS011;4563;54.756;9.400;2022-12-07T10:43:48;1.17;;;0.20;;
9056;SDS011;4563;54.756;9.400;2022-12-07T10:49:13;0.40;;;0.20;;
9056;SDS011;4563;54.756;9.400;2022-12-07T10:52:04;1.43;;;0.40;;
9056;SDS011;4563;54.756;9.400;2022-12-07T10:54:39;2.57;;;0.53;;
9056;SDS011;4563;54.756;9.400;2022-12-07T10:57:17;1.30;;;0.40;;
9056;SDS011;4563;54.756;9.400;2022-12-07T11:00:00;1.13;;;0.50;;
9056;SDS011;4563;54.756;9.400;2022-12-07T11:02:35;0.33;;;0.30;;
9056;SDS011;4563;54.756;9.400;2022-12-07T11:05:17;0.43;;;0.30;;
9056;SDS011;4563;54.756;9.400;2022-12-07T11:07:54;3.17;;;0.33;;
9056;SDS011;4563;54.756;9.400;2022-12-07T11:10:29;2.13;;;0.40;;
9056;SDS011;4563;54.756;9.400;2022-12-07T11:13:13;1.80;;;0.20;;
9056;SDS011;4563;54.756;9.400;2022-12-07T11:15:53;0.47;;;0.30;;
9056;SDS011;4563;54.756;9.400;2022-12-07T11:18:29;1.67;;;0.30;;
9056;SDS011;4563;54.756;9.400;2022-12-07T11:21:06;8.23;;;0.50;;
9056;SDS011;4563;54.756;9.400;2022-12-07T11:23:40;1.97;;;0.37;;
9056;SDS011;4563;54.756;9.400;2022-12-07T11:26:16;1.40;;;0.30;;
9056;SDS011;4563;54.756;9.400;2022-12-07T11:28:57;0.87;;;0.20;;
9056;SDS011;4563;54.756;9.400;2022-12-07T11:31:34;5.03;;;0.20;;
9056;SDS011;4563;54.756;9.400;2022-12-07T11:34:08;0.10;;;0.10;;
9056;SDS011;4563;54.756;9.400;2022-12-07T11:36:41;0.97;;;0.20;;
9056;SDS011;4563;54.756;9.400;2022-12-07T11:39:23;0.20;;;0.20;;
9056;SDS011;4563;54.756;9.400;2022-12-07T11:41:57;1.63;;;0.23;;
9056;SDS011;4563;54.756;9.400;2022-12-07T11:44:31;1.17;;;0.20;;
9056;SDS011;4563;54.756;9.400;2022-12-07T11:47:05;0.13;;;0.13;;
9056;SDS011;4563;54.756;9.400;2022-12-07T11:49:40;0.30;;;0.20;;
9056;SDS011;4563;54.756;9.400;2022-12-07T11:52:13;2.13;;;0.30;;
9056;SDS011;4563;54.756;9.400;2022-12-07T11:54:47;0.87;;;0.10;;
9056;SDS011;4563;54.756;9.400;2022-12-07T11:57:20;0.17;;;0.07;;
9056;SDS011;4563;54.756;9.400;2022-12-07T11:59:52;2.87;;;0.57;;
9056;SDS011;4563;54.756;9.400;2022-12-07T12:02:26;2.33;;;0.40;;
9056;SDS011;4563;54.756;9.400;2022-12-07T12:04:59;0.40;;;0.20;;
9056;SDS011;4563;54.756;9.400;2022-12-07T12:07:35;0.97;;;0.40;;
9056;SDS011;4563;54.756;9.400;2022-12-07T12:10:04;4.30;;;1.60;;
9056;SDS011;4563;54.756;9.400;2022-12-07T12:12:54;1.40;;;1.00;;
9056;SDS011;4563;54.756;9.400;2022-12-07T12:15:48;1.60;;;0.40;;
9056;SDS011;4563;54.756;9.400;2022-12-07T12:18:38;0.27;;;0.20;;
9056;SDS011;4563;54.756;9.400;2022-12-07T12:21:18;1.80;;;0.57;;
9056;SDS011;4563;54.756;9.400;2022-12-07T12:23:51;5.60;;;0.77;;
9056;SDS011;4563;54.756;9.400;2022-12-07T12:26:23;1.17;;;0.40;;
9056;SDS011;4563;54.756;9.400;2022-12-07T12:28:54;0.20;;;0.20;;
9056;SDS011;4563;54.756;9.400;2022-12-07T12:31:37;2.43;;;0.20;;
9056;SDS011;4563;54.756;9.400;2022-12-07T12:36:56;0.90;;;0.87;;
9056;SDS011;4563;54.756;9.400;2022-12-07T12:39:24;3.37;;;1.30;;
9056;SDS011;4563;54.756;9.400;2022-12-07T12:41:58;0.80;;;0.43;;
9056;SDS011;4563;54.756;9.400;2022-12-07T12:47:53;3.17;;;1.70;;
9056;SDS011;4563;54.756;9.400;2022-12-07T12:50:23;2.40;;;0.40;;
9056;SDS011;4563;54.756;9.400;2022-12-07T12:52:58;2.93;;;0.40;;
9056;SDS011;4563;54.756;9.400;2022-12-07T12:55:42;0.67;;;0.20;;
9056;SDS011;4563;54.756;9.400;2022-12-07T12:58:35;4.83;;;0.30;;
9056;SDS011;4563;54.756;9.400;2022-12-07T13:07:04;0.50;;;0.30;;
9056;SDS011;4563;54.756;9.400;2022-12-07T13:09:36;0.63;;;0.17;;
9056;SDS011;4563;54.756;9.400;2022-12-07T13:12:13;0.20;;;0.20;;
9056;SDS011;4563;54.756;9.400;2022-12-07T13:14:52;0.37;;;0.20;;
9056;SDS011;4563;54.756;9.400;2022-12-07T13:20:40;0.30;;;0.20;;
9056;SDS011;4563;54.756;9.400;2022-12-07T13:23:19;0.53;;;0.20;;
9056;SDS011;4563;54.756;9.400;2022-12-07T13:25:51;0.73;;;0.37;;
9056;SDS011;4563;54.756;9.400;2022-12-07T13:28:31;0.47;;;0.30;;
9056;SDS011;4563;54.756;9.400;2022-12-07T13:31:15;0.63;;;0.10;;
9056;SDS011;4563;54.756;9.400;2022-12-07T13:33:49;0.27;;;0.20;;
9056;SDS011;4563;54.756;9.400;2022-12-07T13:36:20;0.13;;;0.13;;
9056;SDS011;4563;54.756;9.400;2022-12-07T13:38:53;2.40;;;0.27;;
9056;SDS011;4563;54.756;9.400;2022-12-07T13:41:21;2.80;;;0.60;;
9056;SDS011;4563;54.756;9.400;2022-12-07T13:43:52;2.00;;;0.30;;
9056;SDS011;4563;54.756;9.400;2022-12-07T13:46:25;0.60;;;0.20;;
9056;SDS011;4563;54.756;9.400;2022-12-07T13:49:00;3.30;;;2.37;;
9056;SDS011;4563;54.756;9.400;2022-12-07T13:51:28;4.70;;;2.77;;
9056;SDS011;4563;54.756;9.400;2022-12-07T13:54:00;1.63;;;0.40;;
9056;SDS011;4563;54.756;9.400;2022-12-07T13:56:34;0.30;;;0.30;;
9056;SDS011;4563;54.756;9.400;2022-12-07T13:59:03;1.47;;;0.27;;
9056;SDS011;4563;54.756;9.400;2022-12-07T14:01:37;2.60;;;1.40;;
9056;SDS011;4563;54.756;9.400;2022-12-07T14:04:16;1.80;;;0.97;;
9056;SDS011;4563;54.756;9.400;2022-12-07T14:06:48;0.80;;;0.47;;
9056;SDS011;4563;54.756;9.400;2022-12-07T14:09:17;0.80;;;0.30;;
9056;SDS011;4563;54.756;9.400;2022-12-07T14:11:45;0.47;;;0.30;;
9056;SDS011;4563;54.756;9.400;2022-12-07T14:14:16;0.60;;;0.27;;
9056;SDS011;4563;54.756;9.400;2022-12-07T14:16:54;0.43;;;0.30;;
9056;SDS011;4563;54.756;9.400;2022-12-07T14:19:44;2.27;;;0.30;;
9056;SDS011;4563;54.756;9.400;2022-12-07T14:22:21;0.40;;;0.40;;
9056;SDS011;4563;54.756;9.400;2022-12-07T14:24:58;0.23;;;0.23;;
9056;SDS011;4563;54.756;9.400;2022-12-07T14:27:49;0.20;;;0.20;;
9056;SDS011;4563;54.756;9.400;2022-12-07T14:30:19;0.30;;;0.30;;
9056;SDS011;4563;54.756;9.400;2022-12-07T14:32:52;1.87;;;0.40;;
9056;SDS011;4563;54.756;9.400;2022-12-07T14:35:20;1.43;;;0.30;;
9056;SDS011;4563;54.756;9.400;2022-12-07T14:37:48;0.50;;;0.20;;
9056;SDS011;4563;54.756;9.400;2022-12-07T14:40:16;2.03;;;0.33;;
9056;SDS011;4563;54.756;9.400;2022-12-07T14:42:45;0.90;;;0.70;;
9056;SDS011;4563;54.756;9.400;2022-12-07T14:45:15;0.20;;;0.20;;
9056;SDS011;4563;54.756;9.400;2022-12-07T14:47:44;0.10;;;0.07;;
9056;SDS011;4563;54.756;9.400;2022-12-07T14:50:12;0.30;;;0.30;;
9056;SDS011;4563;54.756;9.400;2022-12-07T14:55:56;1.63;;;0.80;;
9056;SDS011;4563;54.756;9.400;2022-12-07T15:01:33;1.43;;;1.13;;
9056;SDS011;4563;54.756;9.400;2022-12-07T15:04:07;0.87;;;0.40;;
9056;SDS011;4563;54.756;9.400;2022-12-07T15:06:34;1.20;;;0.40;;
9056;SDS011;4563;54.756;9.400;2022-12-07T15:09:01;0.90;;;0.30;;
9056;SDS011;4563;54.756;9.400;2022-12-07T15:11:29;0.50;;;0.50;;
9056;SDS011;4563;54.756;9.400;2022-12-07T15:13:55;0.60;;;0.60;;
9056;SDS011;4563;54.756;9.400;2022-12-07T15:16:36;2.93;;;0.50;;
9056;SDS011;4563;54.756;9.400;2022-12-07T15:19:04;2.07;;;0.77;;
9056;SDS011;4563;54.756;9.400;2022-12-07T15:21:33;1.50;;;1.37;;
9056;SDS011;4563;54.756;9.400;2022-12-07T15:23:59;2.63;;;1.97;;
9056;SDS011;4563;54.756;9.400;2022-12-07T15:26:27;3.73;;;3.37;;
9056;SDS011;4563;54.756;9.400;2022-12-07T15:28:53;4.23;;;3.83;;
9056;SDS011;4563;54.756;9.400;2022-12-07T15:31:20;2.63;;;2.20;;
9056;SDS011;4563;54.756;9.400;2022-12-07T15:33:47;4.07;;;3.77;;
9056;SDS011;4563;54.756;9.400;2022-12-07T15:36:18;3.43;;;2.10;;
9056;SDS011;4563;54.756;9.400;2022-12-07T15:38:48;2.43;;;1.73;;
9056;SDS011;4563;54.756;9.400;2022-12-07T15:41:15;2.13;;;1.53;;
9056;SDS011;4563;54.756;9.400;2022-12-07T15:43:42;2.20;;;1.20;;
9056;SDS011;4563;54.756;9.400;2022-12-07T15:46:29;2.57;;;1.33;;
9056;SDS011;4563;54.756;9.400;2022-12-07T15:48:56;1.37;;;1.20;;
9056;SDS011;4563;54.756;9.400;2022-12-07T15:51:23;2.50;;;1.67;;
9056;SDS011;4563;54.756;9.400;2022-12-07T15:53:51;2.73;;;1.13;;
9056;SDS011;4563;54.756;9.400;2022-12-07T15:56:19;1.27;;;0.90;;
9056;SDS011;4563;54.756;9.400;2022-12-07T15:58:46;1.20;;;0.90;;
9056;SDS011;4563;54.756;9.400;2022-12-07T16:01:13;0.70;;;0.70;;
9056;SDS011;4563;54.756;9.400;2022-12-07T16:03:41;0.63;;;0.50;;
9056;SDS011;4563;54.756;9.400;2022-12-07T16:06:09;0.53;;;0.50;;
9056;SDS011;4563;54.756;9.400;2022-12-07T16:08:36;1.20;;;0.50;;